CheckWX is a tool to help pilots better visualize weather data.  It is not intended as a substitute for an official pre-flight weather briefing.

14:13:50 UTC

KJXN METAR
Jackson County-Reynolds Field Airport
Jackson, Michigan, USA
Current

18 mins ago

KJXN 261356Z 31011G23KT 10SM SCT022 OVC060 11/07 A2955 RMK AO2 SLP007 T01110067
Observed
Apr-26 @ 13:56 UTC
Wind
  • 310° at 11 KTS
  • Gusting to 23 KTS
Visibility
10 SM
Flight Rules
VFR
Cloud Levels
  • Scattered at 2,200' AGL
  • Overcast at 6,000' AGL
Temperature
11°C / 52°F
Dewpoint
C / 45°F
Humidity
77%
Altimeter
29.55" Hg
Pressure
1000.72 hPa
Previous

36 mins ago

KJXN 261338Z 31009G19KT 10SM SCT021 BKN030 OVC065 11/07 A2955 RMK AO2 T01110067
Observed
Apr-26 @ 13:38 UTC
Wind
  • 310° at 9 KTS
  • Gusting to 19 KTS
Visibility
10 SM
Flight Rules
MVFR
Cloud Levels
  • Scattered at 2,100' AGL
  • Broken at 3,000' AGL
  • Overcast at 6,500' AGL
Temperature
11°C / 52°F
Dewpoint
C / 45°F
Humidity
77%
Altimeter
29.55" Hg
Pressure
1000.72 hPa
Previous

1 hour ago

KJXN 261256Z 30008G22KT 10SM BKN022 BKN029 BKN060 11/07 A2954 RMK AO2 SLP003 T01060072
Observed
Apr-26 @ 12:56 UTC
Wind
  • 300° at 8 KTS
  • Gusting to 22 KTS
Visibility
10 SM
Flight Rules
MVFR
Cloud Levels
  • Broken at 2,200' AGL
  • Broken at 2,900' AGL
  • Broken at 6,000' AGL
Temperature
11°C / 52°F
Dewpoint
C / 45°F
Humidity
77%
Altimeter
29.54" Hg
Pressure
1000.32 hPa